Time;durP1;ratioP1;P1;durP2;ratioP2;P2;SDS_P1;SDS_P2;PMS_P1;PMS_P2;Temp;Humidity;BMP_temperature;BMP_pressure;BME280_temperature;BME280_humidity;BME280_pressure;Samples;Min_cycle;Max_cycle;Signal;HPM_P1;HPM_P2
2023/08/24 00:00:18;;;;;;;14.35;11.77;;;;;;;-145.63;58.01;39063.34;5007842;28;20028;-68
2023/08/24 00:02:43;;;;;;;12.43;10.75;;;;;;;-145.63;57.68;39043.81;5025508;28;20025;-68
2023/08/24 00:05:09;;;;;;;14.75;12.05;;;;;;;-145.63;57.39;39043.81;5025161;28;20034;-68
2023/08/24 00:07:35;;;;;;;13.07;11.55;;;;;;;-145.63;57.16;39051.63;5025328;28;20029;-68
2023/08/24 00:10:01;;;;;;;15.52;12.63;;;;;;;-145.63;58.01;39073.13;5023998;28;20072;-67
2023/08/24 00:12:27;;;;;;;14.23;11.93;;;;;;;-145.63;57.79;39075.09;5024691;28;20030;-68
2023/08/24 00:14:53;;;;;;;14.60;12.13;;;;;;;-145.63;57.33;39049.66;5025303;28;20068;-67
2023/08/24 00:17:19;;;;;;;11.02;9.93;;;;;;;-145.63;57.14;38486.50;5015195;28;20025;-66
2023/08/24 00:19:46;;;;;;;14.30;11.32;;;;;;;-145.63;57.07;39065.31;5025101;28;20097;-67
2023/08/24 00:22:12;;;;;;;12.23;10.90;;;;;;;-145.63;57.22;39059.44;5024519;28;20092;-67
2023/08/24 00:24:38;;;;;;;12.30;11.00;;;;;;;-145.63;57.01;39071.19;5032759;28;20322;-67
2023/08/24 00:27:04;;;;;;;13.00;11.15;;;;;;;-145.63;57.04;39082.91;5036771;28;20812;-68
2023/08/24 00:29:30;;;;;;;10.65;9.63;;;;;;;-145.63;56.88;39035.97;5024825;28;20017;-67
2023/08/24 00:31:56;;;;;;;11.88;10.65;;;;;;;-145.63;56.63;39012.50;5024685;28;20025;-67
2023/08/24 00:34:21;;;;;;;12.85;9.57;;;;;;;-145.63;56.53;39077.06;5025072;28;20084;-68
2023/08/24 00:36:47;;;;;;;11.20;10.05;;;;;;;-145.63;56.12;39045.75;5024944;28;20026;-67
2023/08/24 00:39:13;;;;;;;11.77;9.68;;;;;;;-145.63;56.34;39043.81;5024599;28;20037;-69
2023/08/24 00:41:38;;;;;;;10.05;8.93;;;;;;;-145.63;56.49;39043.81;5023645;28;20049;-68
2023/08/24 00:44:07;;;;;;;10.18;8.63;;;;;;;-145.63;56.53;39067.28;5023264;28;20206;-68
2023/08/24 00:46:34;;;;;;;9.10;7.55;;;;;;;-145.63;56.29;39051.63;5024499;28;20034;-68
2023/08/24 00:49:00;;;;;;;8.93;7.55;;;;;;;-145.63;56.17;38877.56;5024454;28;20336;-68
2023/08/24 00:51:26;;;;;;;8.90;7.43;;;;;;;-145.63;56.16;39037.94;5024710;28;20049;-67
2023/08/24 00:53:53;;;;;;;8.52;7.35;;;;;;;-145.63;56.24;39030.13;5024694;28;20337;-67
2023/08/24 00:56:24;;;;;;;8.88;7.20;;;;;;;-145.63;55.97;39035.97;5024549;28;20025;-68
2023/08/24 00:58:51;;;;;;;8.75;7.85;;;;;;;-145.63;56.05;39075.09;5024547;28;20034;-68
2023/08/24 01:01:20;;;;;;;8.80;7.90;;;;;;;-145.63;55.84;39020.34;5024240;28;20084;-68
2023/08/24 01:03:46;;;;;;;7.50;6.80;;;;;;;-145.63;56.17;39047.72;5030524;28;20075;-67
2023/08/24 01:06:11;;;;;;;7.95;7.15;;;;;;;-145.63;56.11;39034.03;5029121;28;20029;-66
2023/08/24 01:08:37;;;;;;;9.20;7.32;;;;;;;-145.63;56.32;39026.19;5024509;28;20026;-67
2023/08/24 01:11:38;;;;;;;9.35;7.90;;;;;;;-145.63;56.03;39037.94;5023987;28;20026;-68
2023/08/24 01:14:42;;;;;;;7.38;6.68;;;;;;;-145.63;56.26;39035.97;5022952;28;20061;-67
2023/08/24 01:17:11;;;;;;;9.25;7.18;;;;;;;-145.63;55.88;39075.09;4959212;28;20298;-67
2023/08/24 01:19:41;;;;;;;9.05;6.82;;;;;;;-145.63;55.95;39024.25;5024046;28;20104;-69
2023/08/24 01:22:28;;;;;;;7.88;6.20;;;;;;;-145.63;56.17;39030.13;5027229;28;20046;-69
2023/08/24 01:25:07;;;;;;;9.65;6.53;;;;;;;-145.63;55.99;39012.50;5037480;28;20067;-69
2023/08/24 01:27:34;;;;;;;8.13;7.32;;;;;;;-145.63;55.66;39043.81;5035973;28;20025;-68
2023/08/24 01:30:03;;;;;;;7.70;6.90;;;;;;;-145.63;56.06;39028.16;5023789;28;20018;-68
2023/08/24 01:32:33;;;;;;;8.05;7.07;;;;;;;-145.63;55.92;39032.06;5016984;28;20033;-70
2023/08/24 01:35:00;;;;;;;8.68;7.43;;;;;;;-145.63;56.38;39061.41;5023584;28;20056;-69
2023/08/24 01:37:27;;;;;;;7.63;6.60;;;;;;;-145.63;56.24;39053.59;5023801;28;20033;-68
2023/08/24 01:39:55;;;;;;;8.00;7.20;;;;;;;-145.63;56.30;39024.25;5022548;28;20018;-69
2023/08/24 01:42:29;;;;;;;7.53;6.72;;;;;;;-145.63;56.11;39043.81;5023830;28;20030;-67
2023/08/24 01:45:00;;;;;;;8.68;7.18;;;;;;;-145.63;56.21;39071.19;5023573;28;20046;-67
2023/08/24 01:47:27;;;;;;;8.85;7.13;;;;;;;-145.63;56.16;38985.13;5023508;28;20377;-68
2023/08/24 01:49:53;;;;;;;9.15;7.15;;;;;;;-145.63;56.65;39032.06;5023359;28;20026;-66
2023/08/24 01:52:19;;;;;;;7.38;6.47;;;;;;;-145.63;56.56;39037.94;5023653;28;20032;-67
2023/08/24 01:54:47;;;;;;;7.20;6.50;;;;;;;-145.63;56.30;39022.28;5023616;28;20030;-67
2023/08/24 01:57:13;;;;;;;7.72;6.15;;;;;;;-145.63;56.21;39010.56;5023149;28;20037;-68
2023/08/24 01:59:38;;;;;;;6.68;6.07;;;;;;;-145.63;56.34;39035.97;5022281;28;20022;-67
2023/08/24 02:02:04;;;;;;;9.02;6.82;;;;;;;-145.63;56.14;39030.13;5023230;28;20061;-68
2023/08/24 02:04:30;;;;;;;6.47;5.78;;;;;;;-145.63;56.39;39035.97;5023604;28;20321;-67
2023/08/24 02:06:56;;;;;;;8.10;6.93;;;;;;;-145.63;56.69;38159.97;5023247;28;20049;-67
2023/08/24 02:09:21;;;;;;;7.72;6.85;;;;;;;-145.63;56.18;39041.84;5022200;28;20056;-67
2023/08/24 02:11:47;;;;;;;7.85;6.97;;;;;;;-145.63;56.24;39047.72;5021962;28;20029;-66
2023/08/24 02:14:13;;;;;;;8.15;6.68;;;;;;;-145.63;56.21;39045.75;5023049;28;20371;-67
2023/08/24 02:16:39;;;;;;;8.85;6.78;;;;;;;-145.63;56.66;39020.34;5023607;28;20052;-67
2023/08/24 02:19:05;;;;;;;7.78;6.43;;;;;;;-145.63;56.28;39008.59;5023029;28;20049;-68
2023/08/24 02:21:30;;;;;;;9.32;6.90;;;;;;;-145.63;56.45;39057.50;5022982;28;20033;-68
2023/08/24 02:23:56;;;;;;;9.95;6.93;;;;;;;-145.63;56.10;39020.34;5026878;28;20042;-67
2023/08/24 02:26:22;;;;;;;11.88;7.75;;;;;;;-145.63;56.20;39032.06;5023885;28;20025;-67
2023/08/24 02:28:47;;;;;;;9.75;6.90;;;;;;;-145.63;56.38;39034.03;5023115;28;20029;-67
2023/08/24 02:31:13;;;;;;;9.35;7.00;;;;;;;-145.63;55.96;39022.28;5022911;28;20029;-68
2023/08/24 02:33:39;;;;;;;10.02;7.50;;;;;;;-145.63;56.19;39049.66;5022949;28;20029;-68
2023/08/24 02:36:05;;;;;;;6.75;6.15;;;;;;;-145.63;56.24;39028.16;5022830;28;20033;-67
2023/08/24 02:38:30;;;;;;;8.10;6.72;;;;;;;-145.63;56.79;39043.81;5023138;28;20045;-67
2023/08/24 02:41:04;;;;;;;9.90;7.20;;;;;;;-145.63;56.76;39047.72;5022714;28;20033;-67
2023/08/24 02:43:30;;;;;;;7.18;6.45;;;;;;;-145.63;56.55;39034.03;5022995;28;20030;-68
2023/08/24 02:46:04;;;;;;;10.25;7.70;;;;;;;-145.63;56.93;39039.88;5026525;28;20029;-67
2023/08/24 02:48:31;;;;;;;10.85;7.72;;;;;;;-145.63;56.55;39008.59;5026933;28;20076;-67
2023/08/24 02:51:01;;;;;;;9.52;8.55;;;;;;;-145.63;56.86;39057.50;5026712;28;20113;-68
2023/08/24 02:53:27;;;;;;;11.70;8.45;;;;;;;-145.63;56.88;39059.44;5026770;28;20037;-68
2023/08/24 02:55:53;;;;;;;9.20;8.23;;;;;;;-145.63;57.05;39096.59;5026328;28;20042;-66
2023/08/24 02:58:20;;;;;;;8.95;8.05;;;;;;;-145.63;57.34;39075.09;5026868;28;20026;-67
2023/08/24 03:00:46;;;;;;;9.32;7.22;;;;;;;-145.63;57.57;39110.28;5026805;28;20088;-66
2023/08/24 03:03:14;;;;;;;9.40;7.45;;;;;;;-145.63;57.93;39157.22;5026520;28;20025;-67
2023/08/24 03:05:40;;;;;;;7.63;6.90;;;;;;;-145.63;58.03;39125.94;5025463;28;20030;-67
2023/08/24 03:08:06;;;;;;;9.40;6.82;;;;;;;-145.63;57.81;39116.16;5026016;28;20269;-67
2023/08/24 03:10:35;;;;;;;7.25;6.55;;;;;;;-145.63;57.53;39114.22;5026793;28;20349;-66
2023/08/24 03:13:01;;;;;;;10.18;7.30;;;;;;;-145.63;57.93;39114.22;5026388;28;20037;-67
2023/08/24 03:15:27;;;;;;;7.45;6.72;;;;;;;-145.63;57.69;39104.44;5026433;28;20034;-66
2023/08/24 03:17:52;;;;;;;9.82;7.20;;;;;;;-145.63;57.86;39125.94;5026203;28;20226;-67
2023/08/24 03:20:19;;;;;;;8.98;7.80;;;;;;;-145.63;58.50;39098.56;5026205;28;20064;-66
2023/08/24 03:22:45;;;;;;;10.23;8.25;;;;;;;-145.63;58.48;39133.75;5026031;28;20050;-68
2023/08/24 03:25:10;;;;;;;9.23;7.45;;;;;;;-145.63;58.30;39120.06;5036082;28;20403;-67
2023/08/24 03:27:38;;;;;;;9.38;8.38;;;;;;;-145.63;58.03;39155.28;5031913;28;20061;-67
2023/08/24 03:30:04;;;;;;;9.45;8.27;;;;;;;-145.63;58.19;39131.81;5025812;28;20030;-66
2023/08/24 03:32:30;;;;;;;10.48;8.48;;;;;;;-145.63;58.48;39163.09;5026080;28;20025;-67
2023/08/24 03:35:00;;;;;;;11.63;8.48;;;;;;;-145.63;58.66;39161.13;5027646;28;20092;-67
2023/08/24 03:37:26;;;;;;;9.95;8.13;;;;;;;-145.63;58.62;39141.59;5025765;28;20083;-66
2023/08/24 03:39:51;;;;;;;13.63;8.88;;;;;;;-145.63;58.46;39122.03;5026038;28;20037;-66
2023/08/24 03:42:17;;;;;;;11.10;8.45;;;;;;;-145.63;58.10;39145.50;5025572;28;20053;-67
2023/08/24 03:44:43;;;;;;;11.50;8.43;;;;;;;-145.63;58.17;39129.84;5025966;28;20321;-67
2023/08/24 03:47:08;;;;;;;9.30;7.95;;;;;;;-145.63;57.86;39120.06;5025672;28;20287;-67
2023/08/24 03:49:34;;;;;;;10.23;8.73;;;;;;;-145.63;57.68;39143.53;5026814;28;20299;-66
2023/08/24 03:52:00;;;;;;;11.00;9.05;;;;;;;-145.63;57.72;39141.59;5025642;28;20086;-67
2023/08/24 03:54:26;;;;;;;10.05;8.80;;;;;;;-145.63;57.84;39145.50;5026417;28;20030;-67
2023/08/24 03:56:51;;;;;;;10.55;9.10;;;;;;;-145.63;57.68;39094.66;5031520;28;20175;-67
2023/08/24 03:59:17;;;;;;;11.65;9.30;;;;;;;-145.63;57.82;39122.03;5029994;28;20049;-66
2023/08/24 04:01:43;;;;;;;11.55;9.23;;;;;;;-145.63;57.86;39145.50;5031821;28;20029;-67
2023/08/24 04:04:08;;;;;;;14.82;11.25;;;;;;;-145.63;58.45;39133.75;5025386;28;20029;-67
2023/08/24 04:06:34;;;;;;;14.02;10.85;;;;;;;-145.63;58.25;39141.59;5025484;28;20022;-67
2023/08/24 04:09:00;;;;;;;13.93;11.38;;;;;;;-145.63;57.80;39114.22;5025194;28;20103;-67
2023/08/24 04:11:25;;;;;;;14.82;11.43;;;;;;;-145.63;57.77;39069.22;5025535;28;20026;-68
2023/08/24 04:13:51;;;;;;;18.67;13.80;;;;;;;-145.63;57.62;39114.22;5025261;28;20084;-68
2023/08/24 04:16:17;;;;;;;21.98;18.23;;;;;;;-145.63;58.93;39145.50;5024870;28;20030;-67
2023/08/24 04:18:43;;;;;;;19.95;16.95;;;;;;;-145.63;59.35;39165.06;5025359;28;20029;-67
2023/08/24 04:21:08;;;;;;;22.58;18.92;;;;;;;-145.63;59.47;39200.25;5025094;28;20026;-66
2023/08/24 04:23:34;;;;;;;22.67;16.65;;;;;;;-145.63;59.65;39159.19;5027353;28;20036;-67
2023/08/24 04:25:59;;;;;;;17.40;15.13;;;;;;;-145.63;59.26;39188.53;5036997;28;20060;-67
2023/08/24 04:28:25;;;;;;;18.55;15.38;;;;;;;-145.63;58.88;39151.38;5025036;28;20040;-67
2023/08/24 04:30:52;;;;;;;14.73;13.23;;;;;;;-145.63;58.50;39112.25;5025868;28;20021;-67
2023/08/24 04:33:18;;;;;;;12.55;10.30;;;;;;;-145.63;58.33;39161.13;5025771;28;20038;-67
2023/08/24 04:35:54;;;;;;;12.80;11.05;;;;;;;-145.63;57.86;39186.56;5024649;28;20206;-68
2023/08/24 04:38:20;;;;;;;14.32;11.82;;;;;;;-145.63;58.15;39147.44;5034154;28;20325;-67
2023/08/24 04:40:46;;;;;;;14.98;11.82;;;;;;;-145.63;57.82;39182.66;5016674;28;20038;-68
2023/08/24 04:43:12;;;;;;;15.18;11.70;;;;;;;-145.63;58.35;39153.31;5026307;28;20089;-68
2023/08/24 04:45:37;;;;;;;14.55;12.27;;;;;;;-145.63;58.26;39192.44;5034578;28;20029;-68
2023/08/24 04:48:03;;;;;;;15.23;12.55;;;;;;;-145.63;58.63;39208.06;5024526;28;20075;-68
2023/08/24 04:50:29;;;;;;;12.85;11.48;;;;;;;-145.63;59.01;39184.59;5023777;28;20282;-68
2023/08/24 04:52:55;;;;;;;17.50;11.45;;;;;;;-145.63;58.88;39200.25;5024190;28;20073;-67
2023/08/24 04:55:20;;;;;;;11.93;9.43;;;;;;;-145.63;58.49;39118.13;5023800;28;20030;-68
2023/08/24 04:57:46;;;;;;;9.13;8.23;;;;;;;-145.63;58.24;39202.22;5015084;28;20029;-67
2023/08/24 05:00:15;;;;;;;10.18;6.55;;;;;;;-145.63;57.59;39190.47;5023714;28;20029;-67
2023/08/24 05:02:42;;;;;;;8.32;7.38;;;;;;;-145.63;57.83;39184.59;5023949;28;20089;-68
2023/08/24 05:05:09;;;;;;;6.90;6.20;;;;;;;-145.63;57.58;39170.91;5023869;28;20041;-68
2023/08/24 05:07:38;;;;;;;10.13;7.25;;;;;;;-145.63;57.80;39163.09;5023737;28;20136;-68
2023/08/24 05:10:04;;;;;;;6.97;5.95;;;;;;;-145.63;57.76;39127.91;5023742;28;20021;-67
2023/08/24 05:12:30;;;;;;;7.20;6.47;;;;;;;-145.63;57.47;39192.44;5024142;28;20029;-67
2023/08/24 05:14:57;;;;;;;7.90;5.55;;;;;;;-145.63;57.36;39176.78;5023598;28;20084;-66
2023/08/24 05:17:24;;;;;;;6.00;5.15;;;;;;;-145.63;57.88;39172.88;5024239;28;20030;-67
2023/08/24 05:19:54;;;;;;;9.80;7.70;;;;;;;-145.63;57.34;39184.59;5024094;28;20056;-67
2023/08/24 05:22:20;;;;;;;10.95;9.35;;;;;;;-145.63;57.22;39178.75;5029827;28;20050;-68
2023/08/24 05:24:46;;;;;;;11.68;10.48;;;;;;;-145.63;56.89;39170.91;5028125;28;20058;-66
2023/08/24 05:27:12;;;;;;;11.15;9.95;;;;;;;-145.63;56.78;39172.88;5026835;28;20033;-67
2023/08/24 05:29:37;;;;;;;10.18;9.25;;;;;;;-145.63;56.72;39145.50;5023797;28;20032;-67
2023/08/24 05:32:03;;;;;;;11.18;10.00;;;;;;;-145.63;56.70;39170.91;5026675;28;20036;-66
2023/08/24 05:34:29;;;;;;;10.68;8.65;;;;;;;-145.63;56.39;39186.56;5029240;28;20033;-66
2023/08/24 05:36:55;;;;;;;7.10;6.40;;;;;;;-145.63;56.62;39170.91;5023551;28;20250;-66
2023/08/24 05:39:20;;;;;;;6.82;6.18;;;;;;;-145.63;57.16;39194.38;5023908;28;20022;-67
2023/08/24 05:41:46;;;;;;;9.52;6.75;;;;;;;-145.63;57.09;39149.41;5025596;28;20025;-67
2023/08/24 05:44:11;;;;;;;7.72;6.60;;;;;;;-145.63;56.99;39167.00;5029293;28;20163;-69
2023/08/24 05:46:37;;;;;;;10.40;7.55;;;;;;;-145.63;57.42;39141.59;5028650;28;20033;-67
2023/08/24 05:49:03;;;;;;;6.70;6.00;;;;;;;-145.63;57.50;39161.13;5023549;28;20052;-68
2023/08/24 05:51:28;;;;;;;8.00;5.65;;;;;;;-145.63;57.89;39176.78;5023537;28;20326;-66
2023/08/24 05:53:58;;;;;;;7.22;5.55;;;;;;;-145.63;57.51;39182.66;5023749;28;20092;-68
2023/08/24 05:56:24;;;;;;;6.22;5.63;;;;;;;-145.63;57.80;39194.38;5023623;28;20030;-67
2023/08/24 05:58:50;;;;;;;7.15;5.22;;;;;;;-145.63;57.55;39206.13;5023572;28;20030;-67
2023/08/24 06:01:16;;;;;;;7.55;5.57;;;;;;;-145.63;57.87;39206.13;5022303;28;20096;-67
2023/08/24 06:03:41;;;;;;;8.30;5.82;;;;;;;-145.63;57.43;39190.47;5023129;28;20030;-67
2023/08/24 06:06:08;;;;;;;5.22;4.72;;;;;;;-145.63;57.20;39196.34;5023314;28;20042;-68
2023/08/24 06:08:34;;;;;;;6.10;5.28;;;;;;;-145.63;57.73;39204.16;5023374;28;20086;-66
2023/08/24 06:11:00;;;;;;;6.72;5.25;;;;;;;-145.63;57.70;39208.06;5022966;28;20037;-67
2023/08/24 06:13:26;;;;;;;5.70;5.10;;;;;;;-145.63;57.41;39184.59;5023191;28;20026;-68
2023/08/24 06:15:54;;;;;;;6.22;4.97;;;;;;;-145.63;57.40;38983.19;5022968;28;20038;-68
2023/08/24 06:18:20;;;;;;;7.57;5.13;;;;;;;-145.63;57.51;39143.53;5023223;28;20032;-67
2023/08/24 06:20:46;;;;;;;8.75;7.80;;;;;;;-145.63;57.99;39210.03;5023009;28;20030;-67
2023/08/24 06:23:15;;;;;;;10.13;7.90;;;;;;;-145.63;57.68;39208.06;5021918;28;20048;-68
2023/08/24 06:25:41;;;;;;;21.08;16.98;;;;;;;-145.63;57.74;39219.81;5025577;28;20210;-67
2023/08/24 06:28:08;;;;;;;10.05;9.05;;;;;;;-145.63;57.32;39180.69;5034154;28;20030;-67
2023/08/24 06:30:38;;;;;;;13.15;10.02;;;;;;;-145.63;57.05;39204.16;5034089;28;20052;-67
2023/08/24 06:33:04;;;;;;;12.90;10.02;;;;;;;-145.63;57.18;39165.06;5022999;28;20030;-67
2023/08/24 06:35:30;;;;;;;11.05;9.40;;;;;;;-145.63;57.55;39190.47;5022949;28;20029;-68
2023/08/24 06:37:56;;;;;;;11.45;10.32;;;;;;;-145.63;57.74;39217.84;5017322;28;20029;-67
2023/08/24 06:40:21;;;;;;;18.25;16.17;;;;;;;-145.63;57.35;39163.09;5021784;28;20321;-66
2023/08/24 06:42:47;;;;;;;13.52;11.75;;;;;;;-145.63;57.09;39196.34;5023082;28;20034;-67
2023/08/24 06:45:12;;;;;;;17.88;12.50;;;;;;;-145.63;57.22;39167.00;5022522;28;20026;-66
2023/08/24 06:47:39;;;;;;;15.00;12.57;;;;;;;-145.63;57.05;39192.44;5022644;28;20033;-68
2023/08/24 06:50:06;;;;;;;15.27;13.77;;;;;;;-145.63;57.01;39186.56;5023105;28;20022;-68
2023/08/24 06:52:31;;;;;;;13.73;12.35;;;;;;;-145.63;56.82;39190.47;5028599;28;20026;-67
2023/08/24 06:54:58;;;;;;;12.88;11.60;;;;;;;-145.63;56.49;39145.50;5032456;28;20061;-67
2023/08/24 06:57:24;;;;;;;13.48;10.35;;;;;;;-145.63;56.40;39172.88;5019155;28;20079;-66
2023/08/24 06:59:50;;;;;;;10.20;9.20;;;;;;;-145.63;56.14;39149.41;5030858;28;20060;-67
2023/08/24 07:02:17;;;;;;;8.85;7.97;;;;;;;-145.63;55.82;39153.31;5021190;28;20049;-66
2023/08/24 07:04:43;;;;;;;8.23;7.43;;;;;;;-145.63;55.51;39118.13;5017340;28;20322;-65
2023/08/24 07:07:10;;;;;;;8.00;7.30;;;;;;;-145.63;55.47;39137.69;5015873;28;20097;-64
2023/08/24 07:09:36;;;;;;;8.95;8.15;;;;;;;-145.63;55.17;39159.19;5015339;28;20325;-66
2023/08/24 07:12:03;;;;;;;10.38;7.57;;;;;;;-145.63;55.20;39163.09;5017942;28;20214;-64
2023/08/24 07:14:28;;;;;;;8.93;8.02;;;;;;;-145.63;55.21;39147.44;5020718;28;20281;-64
2023/08/24 07:16:54;;;;;;;9.32;8.40;;;;;;;-145.63;55.37;39153.31;5022709;28;20026;-64
2023/08/24 07:19:20;;;;;;;11.40;7.90;;;;;;;-145.63;54.85;39118.13;5023345;28;20080;-64
2023/08/24 07:21:46;;;;;;;11.45;8.43;;;;;;;-145.63;54.87;39176.78;5003441;28;20046;-65
2023/08/24 07:24:12;;;;;;;9.23;8.43;;;;;;;-145.63;54.65;39151.38;5019069;28;20045;-64
2023/08/24 07:26:37;;;;;;;9.60;8.70;;;;;;;-145.63;55.32;39168.97;5023568;28;20218;-63
2023/08/24 07:29:03;;;;;;;11.77;8.25;;;;;;;-145.63;54.99;39153.31;5021023;28;20029;-64
2023/08/24 07:31:29;;;;;;;9.35;7.57;;;;;;;-145.63;55.30;39149.41;5021320;28;20195;-65
2023/08/24 07:33:54;;;;;;;9.75;6.57;;;;;;;-145.63;55.11;39118.13;5024367;28;20080;-63
2023/08/24 07:36:20;;;;;;;7.25;6.55;;;;;;;-145.63;55.16;39090.75;5023670;28;20041;-63
2023/08/24 07:38:49;;;;;;;7.95;6.95;;;;;;;-145.63;55.43;39149.41;5020597;28;20019;-63
2023/08/24 07:41:17;;;;;;;10.60;8.55;;;;;;;-145.63;54.95;39122.03;5015308;28;20045;-62
2023/08/24 07:43:43;;;;;;;10.43;9.45;;;;;;;-145.63;55.69;39165.06;5020156;28;20034;-65
2023/08/24 07:46:09;;;;;;;11.95;10.75;;;;;;;-145.63;56.12;39170.91;5022448;28;20081;-62
2023/08/24 07:48:35;;;;;;;13.18;11.77;;;;;;;-145.63;56.09;39082.91;5034986;28;20029;-63
2023/08/24 07:51:00;;;;;;;14.05;12.70;;;;;;;-145.63;55.76;39155.28;5033767;28;20266;-63
2023/08/24 07:53:26;;;;;;;13.48;12.00;;;;;;;-145.63;55.66;39153.31;5034285;28;20030;-65
2023/08/24 07:55:54;;;;;;;13.80;12.27;;;;;;;-145.63;55.49;39155.28;5031584;28;20034;-64
2023/08/24 07:58:19;;;;;;;12.98;11.70;;;;;;;-145.63;54.45;39129.84;5033428;28;20122;-64
2023/08/24 08:00:46;;;;;;;12.13;10.93;;;;;;;-145.63;54.59;39145.50;5036123;28;20029;-64
2023/08/24 08:03:11;;;;;;;12.45;11.27;;;;;;;-145.63;54.53;39143.53;5027870;28;20037;-64
2023/08/24 08:05:37;;;;;;;12.10;11.00;;;;;;;-145.63;54.52;39114.22;5024519;28;20033;-64
2023/08/24 08:08:04;;;;;;;10.25;9.25;;;;;;;-145.63;54.32;39145.50;5032701;28;20041;-65
2023/08/24 08:10:30;;;;;;;9.70;8.70;;;;;;;-145.63;53.86;39098.56;5031251;28;20026;-65
2023/08/24 08:12:55;;;;;;;10.38;9.27;;;;;;;-145.63;53.65;39086.81;5032849;28;20068;-63
2023/08/24 08:15:21;;;;;;;11.43;9.25;;;;;;;-145.63;53.60;39100.50;5033222;28;20229;-62
2023/08/24 08:17:47;;;;;;;10.32;8.18;;;;;;;-145.63;53.61;39102.47;5032469;28;20322;-63
2023/08/24 08:20:14;;;;;;;10.20;8.20;;;;;;;-145.63;53.25;39094.66;5026652;28;20356;-61
2023/08/24 08:22:40;;;;;;;9.30;8.50;;;;;;;-145.63;52.60;39045.75;5029291;28;20040;-64
2023/08/24 08:25:06;;;;;;;8.88;7.93;;;;;;;-145.63;52.84;39094.66;5030074;28;20034;-65
2023/08/24 08:27:33;;;;;;;9.02;8.20;;;;;;;-145.63;52.67;39110.28;5024811;28;20026;-65
2023/08/24 08:30:00;;;;;;;10.55;9.35;;;;;;;-145.63;52.92;39127.91;5024295;28;20056;-66
2023/08/24 08:32:27;;;;;;;10.30;9.02;;;;;;;-145.63;52.94;39129.84;5024803;28;20029;-65
2023/08/24 08:34:54;;;;;;;9.57;8.05;;;;;;;-145.63;52.96;38590.13;5024794;28;20080;-65
2023/08/24 08:37:21;;;;;;;9.65;8.57;;;;;;;-145.63;52.96;39108.34;5026627;28;20025;-66
2023/08/24 08:39:49;;;;;;;8.77;6.53;;;;;;;-145.63;53.11;39129.84;5019473;28;20093;-65
2023/08/24 08:42:15;;;;;;;7.72;6.93;;;;;;;-145.63;53.65;39161.13;5017670;28;20022;-65
2023/08/24 08:44:43;;;;;;;7.07;6.38;;;;;;;-145.63;53.44;39127.91;5020998;28;20321;-65
2023/08/24 08:47:11;;;;;;;6.53;5.93;;;;;;;-145.63;53.39;39168.97;5018450;28;20030;-64
2023/08/24 08:49:39;;;;;;;7.07;6.38;;;;;;;-145.63;53.23;39143.53;5018343;28;20069;-65
2023/08/24 08:52:05;;;;;;;8.60;7.65;;;;;;;-145.63;53.62;39149.41;5024759;28;20071;-65
2023/08/24 08:54:35;;;;;;;7.32;6.63;;;;;;;-145.63;53.27;39122.03;5024630;28;20048;-66
2023/08/24 08:57:01;;;;;;;10.30;7.00;;;;;;;-145.63;53.32;39157.22;5026403;28;20040;-67
2023/08/24 08:59:30;;;;;;;10.63;6.88;;;;;;;-145.63;53.57;39161.13;5028694;28;20050;-65
2023/08/24 09:01:58;;;;;;;9.15;7.18;;;;;;;-145.63;53.44;39172.88;5020622;28;20025;-65
2023/08/24 09:04:32;;;;;;;8.05;7.10;;;;;;;-145.63;53.21;39100.50;5019348;28;20041;-65
2023/08/24 09:06:58;;;;;;;10.70;9.50;;;;;;;-145.63;53.69;39116.16;5021468;28;20049;-66
2023/08/24 09:09:26;;;;;;;10.23;9.20;;;;;;;-145.63;53.27;39114.22;5024255;28;20310;-68
2023/08/24 09:11:51;;;;;;;9.32;8.35;;;;;;;-145.63;52.52;39137.69;5023612;28;20057;-66
2023/08/24 09:14:17;;;;;;;8.60;6.82;;;;;;;-145.63;53.32;39133.75;5025449;28;20033;-66
2023/08/24 09:16:43;;;;;;;8.55;7.18;;;;;;;-145.63;53.07;39137.69;5024096;28;20030;-65
2023/08/24 09:19:11;;;;;;;10.25;6.50;;;;;;;-145.63;52.54;39096.59;5022759;28;20025;-66
2023/08/24 09:21:39;;;;;;;7.95;6.63;;;;;;;-145.63;52.34;39080.97;5023584;28;20040;-66
2023/08/24 09:24:06;;;;;;;7.40;5.93;;;;;;;-145.63;52.19;39061.41;5026614;28;20049;-65
2023/08/24 09:26:37;;;;;;;10.05;5.88;;;;;;;-145.63;51.17;39084.88;5032098;28;20060;-66
2023/08/24 09:29:14;;;;;;;7.45;6.03;;;;;;;-145.63;51.33;39086.81;5015477;28;20052;-66
2023/08/24 09:31:40;;;;;;;7.15;6.45;;;;;;;-145.63;50.68;39061.41;5017303;28;20334;-66
2023/08/24 09:34:06;;;;;;;7.80;6.30;;;;;;;-145.63;51.05;39047.72;5018300;28;20026;-65
2023/08/24 09:36:33;;;;;;;8.25;7.43;;;;;;;-145.63;50.30;39057.50;5018030;28;20322;-66
2023/08/24 09:39:06;;;;;;;31.88;20.65;;;;;;;-145.63;50.38;39057.50;5021034;28;20365;-64
2023/08/24 09:41:51;;;;;;;9.13;7.05;;;;;;;-145.63;50.24;39080.97;5017591;28;20052;-66
2023/08/24 09:44:18;;;;;;;8.73;5.15;;;;;;;-145.63;50.37;39073.13;5019105;28;20026;-66
2023/08/24 09:46:43;;;;;;;6.28;4.45;;;;;;;-145.63;50.14;39073.13;5021506;28;20030;-65
2023/08/24 09:49:11;;;;;;;5.00;4.10;;;;;;;-145.63;50.55;39098.56;5019695;28;20144;-66
2023/08/24 09:51:38;;;;;;;5.68;4.07;;;;;;;-145.63;50.45;39061.41;5028091;28;20029;-65
2023/08/24 09:54:09;;;;;;;7.70;3.58;;;;;;;-145.63;49.62;39075.09;5019614;28;20041;-66
2023/08/24 09:56:39;;;;;;;6.88;3.65;;;;;;;-145.63;50.34;39080.97;5022018;28;20298;-67
2023/08/24 09:59:21;;;;;;;5.93;4.00;;;;;;;-145.63;50.39;39055.53;5015113;28;20033;-64
2023/08/24 10:01:50;;;;;;;7.80;6.05;;;;;;;-145.63;49.74;39035.97;5021253;28;20033;-64
2023/08/24 10:04:20;;;;;;;3.92;3.55;;;;;;;-145.63;48.79;39110.28;5020244;28;20042;-63
2023/08/24 10:06:51;;;;;;;3.77;3.10;;;;;;;-145.63;48.31;39102.47;5018503;28;20032;-65
2023/08/24 10:09:25;;;;;;;4.38;3.42;;;;;;;-145.63;48.09;39039.88;5014859;28;20834;-62
2023/08/24 10:11:56;;;;;;;5.00;4.03;;;;;;;-145.63;48.50;39014.47;5023209;28;20079;-65
2023/08/24 10:14:31;;;;;;;3.60;3.30;;;;;;;-145.63;48.31;39022.28;5023178;28;20041;-63
2023/08/24 10:16:57;;;;;;;3.80;3.50;;;;;;;-145.63;48.33;39016.44;5022963;28;20459;-65
2023/08/24 10:19:25;;;;;;;4.60;3.10;;;;;;;-145.63;47.84;39114.22;5022907;28;20306;-63
2023/08/24 10:21:56;;;;;;;3.30;3.00;;;;;;;-145.63;48.02;39020.34;5021934;28;20072;-64
2023/08/24 10:24:22;;;;;;;6.05;4.75;;;;;;;-145.63;48.53;39002.72;5022980;28;20041;-66
2023/08/24 10:26:49;;;;;;;6.13;4.38;;;;;;;-145.63;48.73;39024.25;5023121;28;20022;-66
2023/08/24 10:29:17;;;;;;;6.28;4.32;;;;;;;-145.63;48.96;38996.88;5021712;28;20164;-65
2023/08/24 10:31:44;;;;;;;4.05;3.38;;;;;;;-145.63;48.54;39030.13;5019625;28;20121;-66
2023/08/24 10:34:10;;;;;;;5.88;3.25;;;;;;;-145.63;48.34;39055.53;5018532;28;20049;-68
2023/08/24 10:36:40;;;;;;;4.55;3.97;;;;;;;-145.63;48.38;39039.88;5022957;28;20026;-68
2023/08/24 10:39:06;;;;;;;5.90;3.38;;;;;;;-145.63;48.70;39035.97;5026809;28;20022;-66
2023/08/24 10:41:51;;;;;;;4.25;3.10;;;;;;;-145.63;47.78;39028.16;5036227;28;20033;-65
2023/08/24 10:44:25;;;;;;;3.13;2.90;;;;;;;-145.63;47.76;39028.16;5022679;28;20101;-66
2023/08/24 10:47:18;;;;;;;3.38;3.08;;;;;;;-145.63;47.49;38975.34;5022086;28;20030;-66
2023/08/24 10:49:56;;;;;;;6.95;3.50;;;;;;;-145.63;47.37;38949.94;5018880;28;20053;-67
2023/08/24 10:52:46;;;;;;;3.40;3.10;;;;;;;-145.63;47.56;38910.81;5007753;28;20128;-67
2023/08/24 10:55:27;;;;;;;3.40;3.10;;;;;;;-145.63;47.94;38971.44;5022153;28;20104;-67
2023/08/24 10:58:00;;;;;;;3.60;3.20;;;;;;;-145.63;46.77;38992.97;5021309;28;20116;-65
2023/08/24 11:00:27;;;;;;;4.20;3.13;;;;;;;-145.63;47.06;38961.66;5024701;28;20089;-66
2023/08/24 11:02:53;;;;;;;3.65;3.08;;;;;;;-145.63;47.09;38959.72;5024358;28;20096;-64
2023/08/24 11:05:24;;;;;;;2.83;2.63;;;;;;;-145.63;45.55;38914.72;5027928;28;20079;-66
2023/08/24 11:07:56;;;;;;;3.10;2.88;;;;;;;-145.63;46.04;38944.06;5032627;28;20034;-66
2023/08/24 11:10:23;;;;;;;2.95;2.63;;;;;;;-145.63;45.64;38938.19;5028208;28;20041;-64
2023/08/24 11:13:05;;;;;;;3.05;2.55;;;;;;;-145.63;45.64;38910.81;5031305;28;20032;-65